Time;durP1;ratioP1;P1;durP2;ratioP2;P2;SDS_P1;SDS_P2;PMS_P1;PMS_P2;Temp;Humidity;BMP_temperature;BMP_pressure;BME280_temperature;BME280_humidity;BME280_pressure;Samples;Min_cycle;Max_cycle;Signal;HPM_P1;HPM_P2
2023/08/15 00:00:00;;;;;;;3.53;2.60;;;19.80;99.90;;;;;;4974608;28;20041;-81
2023/08/15 00:02:26;;;;;;;9.05;3.33;;;;;;;;;;4971051;28;20065;-82
2023/08/15 00:04:52;;;;;;;4.95;2.63;;;;;;;;;;4971458;28;20026;-79
2023/08/15 00:07:18;;;;;;;4.80;2.05;;;;;;;;;;4971214;28;20054;-81
2023/08/15 00:09:44;;;;;;;6.03;2.63;;;19.60;99.90;;;;;;4984792;28;20085;-82
2023/08/15 00:12:10;;;;;;;4.75;2.70;;;;;;;;;;4970171;28;20042;-81
2023/08/15 00:14:36;;;;;;;4.05;2.70;;;;;;;;;;4984603;28;20030;-80
2023/08/15 00:17:02;;;;;;;4.25;2.80;;;;;;;;;;4987640;28;20119;-81
2023/08/15 00:19:28;;;;;;;5.60;2.40;;;;;;;;;;4982305;28;20114;-81
2023/08/15 00:21:54;;;;;;;4.00;2.35;;;;;;;;;;4966224;28;20459;-82
2023/08/15 00:24:20;;;;;;;5.97;3.30;;;;;;;;;;4970923;28;20027;-81
2023/08/15 00:26:46;;;;;;;5.55;2.85;;;;;;;;;;4982944;28;20411;-81
2023/08/15 00:29:12;;;;;;;3.30;2.58;;;;;;;;;;4974861;28;20408;-82
2023/08/15 00:31:38;;;;;;;3.78;2.53;;;;;;;;;;4972288;28;20093;-79
2023/08/15 00:34:03;;;;;;;4.88;3.13;;;;;;;;;;4990383;28;20039;-79
2023/08/15 00:36:30;;;;;;;3.67;2.33;;;;;;;;;;4994982;28;20041;-79
2023/08/15 00:38:56;;;;;;;10.77;2.72;;;;;;;;;;4995152;28;20046;-81
2023/08/15 00:41:22;;;;;;;3.67;2.03;;;;;;;;;;4968895;28;20047;-81
2023/08/15 00:43:48;;;;;;;3.83;2.35;;;;;;;;;;4974417;28;20038;-83
2023/08/15 00:46:14;;;;;;;4.63;2.58;;;19.90;99.90;;;;;;4962701;28;20050;-82
2023/08/15 00:48:40;;;;;;;5.93;2.50;;;;;;;;;;4949730;28;20128;-83
2023/08/15 00:51:08;;;;;;;3.88;2.63;;;20.20;99.90;;;;;;4974791;28;20103;-81
2023/08/15 00:53:34;;;;;;;4.40;2.42;;;;;;;;;;4971791;28;20125;-80
2023/08/15 00:56:01;;;;;;;3.88;2.25;;;;;;;;;;4983593;28;20030;-82
2023/08/15 00:58:29;;;;;;;5.20;2.90;;;20.10;99.90;;;;;;4964956;28;20062;-82
2023/08/15 01:00:55;;;;;;;4.00;2.17;;;;;;;;;;4951517;28;20843;-83
2023/08/15 01:03:22;;;;;;;4.80;2.28;;;;;;;;;;4967435;28;20027;-82
2023/08/15 01:05:49;;;;;;;4.20;2.42;;;19.90;99.90;;;;;;4986773;28;20574;-83
2023/08/15 01:08:16;;;;;;;5.95;3.15;;;20.10;99.90;;;;;;4974112;28;20126;-83
2023/08/15 01:10:42;;;;;;;5.53;2.47;;;19.40;99.90;;;;;;4969386;28;20030;-83
2023/08/15 01:13:33;;;;;;;6.97;2.88;;;19.50;99.90;;;;;;4968112;28;20074;-81
2023/08/15 01:15:59;;;;;;;6.43;3.78;;;;;;;;;;4964960;28;20552;-82
2023/08/15 01:18:25;;;;;;;4.65;2.60;;;;;;;;;;4973056;28;20026;-83
2023/08/15 01:20:54;;;;;;;3.65;2.38;;;19.00;99.90;;;;;;4965160;28;20372;-81
2023/08/15 01:23:27;;;;;;;3.70;2.25;;;19.70;99.90;;;;;;4968162;28;20390;-83
2023/08/15 01:25:57;;;;;;;8.65;2.53;;;18.80;99.90;;;;;;4967180;28;20035;-79
2023/08/15 01:28:23;;;;;;;4.50;2.40;;;;;;;;;;4972922;28;20035;-82
2023/08/15 01:31:14;;;;;;;6.40;2.25;;;19.50;99.90;;;;;;4964710;28;20087;-82
2023/08/15 01:33:50;;;;;;;4.70;2.50;;;19.50;99.90;;;;;;4963474;28;20038;-81
2023/08/15 01:36:24;;;;;;;5.95;2.75;;;18.80;99.90;;;;;;4967179;28;20039;-80
2023/08/15 01:38:54;;;;;;;9.40;3.35;;;19.90;99.90;;;;;;4955891;28;20094;-82
2023/08/15 01:41:23;;;;;;;8.50;2.47;;;18.80;99.90;;;;;;4967550;28;20050;-82
2023/08/15 01:43:49;;;;;;;4.53;2.55;;;;;;;;;;4966114;28;20015;-82
2023/08/15 01:46:15;;;;;;;4.88;2.83;;;;;;;;;;4971333;28;20039;-82
2023/08/15 01:48:44;;;;;;;4.03;2.92;;;;;;;;;;4966956;28;20039;-81
2023/08/15 01:51:11;;;;;;;9.23;3.22;;;;;;;;;;4968353;28;20030;-82
2023/08/15 01:53:37;;;;;;;4.63;2.78;;;19.80;99.90;;;;;;4963401;28;20388;-81
2023/08/15 01:56:04;;;;;;;5.53;2.97;;;;;;;;;;4964411;28;20065;-81
2023/08/15 01:58:30;;;;;;;3.85;2.40;;;;;;;;;;4962560;28;20383;-81
2023/08/15 02:00:56;;;;;;;7.70;2.83;;;;;;;;;;4966289;28;20078;-80
2023/08/15 02:03:22;;;;;;;5.43;2.72;;;;;;;;;;4963837;28;20491;-80
2023/08/15 02:05:47;;;;;;;8.35;2.42;;;;;;;;;;4968620;28;20035;-80
2023/08/15 02:08:13;;;;;;;5.43;2.38;;;;;;;;;;4975611;28;20065;-80
2023/08/15 02:10:39;;;;;;;5.22;2.67;;;;;;;;;;4965522;28;20031;-80
2023/08/15 02:13:05;;;;;;;3.33;2.13;;;;;;;;;;4969241;28;20512;-81
2023/08/15 02:15:31;;;;;;;2.95;1.77;;;;;;;;;;4967843;28;20647;-80
2023/08/15 02:17:57;;;;;;;3.92;2.42;;;;;;;;;;4974044;28;20045;-82
2023/08/15 02:20:23;;;;;;;4.50;2.63;;;;;;;;;;4968676;28;20038;-80
2023/08/15 02:22:49;;;;;;;3.17;2.47;;;;;;;;;;4970641;28;20031;-80
2023/08/15 02:25:15;;;;;;;3.78;2.25;;;;;;;;;;4971046;28;20820;-80
2023/08/15 02:27:41;;;;;;;9.00;2.83;;;;;;;;;;4963050;28;20085;-82
2023/08/15 02:30:08;;;;;;;4.75;2.60;;;;;;;;;;4962728;28;20026;-82
2023/08/15 02:32:34;;;;;;;6.65;3.03;;;;;;;;;;4966729;28;20125;-81
2023/08/15 02:35:00;;;;;;;2.90;1.92;;;;;;;;;;4968107;28;20118;-81
2023/08/15 02:37:26;;;;;;;3.40;2.60;;;;;;;;;;4970515;28;20549;-82
2023/08/15 02:39:52;;;;;;;4.65;2.13;;;;;;;;;;4973111;28;20153;-82
2023/08/15 02:42:18;;;;;;;5.30;2.95;;;;;;;;;;4978131;28;20059;-80
2023/08/15 02:44:44;;;;;;;4.40;2.25;;;;;;;;;;4972188;28;20023;-81
2023/08/15 02:47:10;;;;;;;7.53;3.05;;;;;;;;;;4969179;28;20144;-81
2023/08/15 02:49:36;;;;;;;9.82;3.08;;;;;;;;;;4973958;28;20039;-80
2023/08/15 02:52:02;;;;;;;6.18;2.92;;;;;;;;;;4965809;28;20426;-81
2023/08/15 02:54:28;;;;;;;14.52;3.20;;;;;;;;;;4955541;28;20038;-81
2023/08/15 02:56:54;;;;;;;3.75;2.58;;;;;;;;;;4977035;28;20398;-80
2023/08/15 02:59:20;;;;;;;5.88;3.13;;;;;;;;;;4979239;28;20035;-80
2023/08/15 03:01:47;;;;;;;4.53;2.92;;;19.00;99.90;;;;;;4983497;28;20018;-81
2023/08/15 03:04:13;;;;;;;4.15;2.47;;;;;;;;;;4967885;28;20026;-81
2023/08/15 03:06:39;;;;;;;9.07;2.80;;;;;;;;;;4985332;28;20818;-80
2023/08/15 03:09:05;;;;;;;4.35;2.40;;;;;;;;;;4977682;28;20035;-80
2023/08/15 03:11:31;;;;;;;4.53;2.38;;;;;;;;;;4966740;28;20054;-80
2023/08/15 03:13:58;;;;;;;4.88;2.90;;;;;;;;;;4965764;28;20038;-80
2023/08/15 03:16:24;;;;;;;5.85;2.60;;;;;;;;;;4966520;28;20031;-80
2023/08/15 03:18:50;;;;;;;8.50;3.25;;;;;;;;;;4963585;28;20057;-80
2023/08/15 03:21:16;;;;;;;5.20;3.28;;;;;;;;;;4985925;28;20034;-81
2023/08/15 03:23:42;;;;;;;5.32;3.20;;;;;;;;;;4984731;28;20034;-81
2023/08/15 03:26:08;;;;;;;4.00;2.58;;;;;;;;;;4964408;28;20031;-80
2023/08/15 03:28:34;;;;;;;5.32;3.17;;;;;;;;;;4977954;28;20034;-80
2023/08/15 03:31:08;;;;;;;3.63;2.50;;;18.60;99.90;;;;;;4967177;28;20030;-81
2023/08/15 03:33:34;;;;;;;9.15;3.70;;;;;;;;;;4982186;28;20027;-80
2023/08/15 03:36:00;;;;;;;5.15;3.08;;;;;;;;;;4968660;28;20038;-80
2023/08/15 03:38:26;;;;;;;6.88;3.03;;;;;;;;;;4971834;28;20035;-80
2023/08/15 03:41:02;;;;;;;8.18;3.53;;;18.70;99.90;;;;;;4966068;28;20026;-81
2023/08/15 03:43:28;;;;;;;5.18;3.50;;;;;;;;;;4961934;28;20046;-82
2023/08/15 03:45:54;;;;;;;6.22;3.35;;;;;;;;;;4988776;28;20025;-81
2023/08/15 03:48:20;;;;;;;5.72;3.28;;;;;;;;;;4982027;28;20018;-78
2023/08/15 03:50:46;;;;;;;7.60;2.67;;;;;;;;;;4985291;28;20030;-78
2023/08/15 03:53:12;;;;;;;4.88;2.95;;;;;;;;;;4998081;28;20030;-82
2023/08/15 03:55:38;;;;;;;4.60;3.25;;;;;;;;;;4979170;28;20322;-82
2023/08/15 03:58:04;;;;;;;6.25;3.05;;;;;;;;;;4989220;28;20027;-83
2023/08/15 04:00:30;;;;;;;6.40;2.58;;;;;;;;;;4975247;28;20450;-82
2023/08/15 04:02:56;;;;;;;7.65;3.30;;;;;;;;;;4989209;28;20041;-83
2023/08/15 04:05:24;;;;;;;6.25;3.70;;;;;;;;;;4968674;28;20105;-83
2023/08/15 04:07:50;;;;;;;5.82;2.92;;;;;;;;;;4984580;28;20062;-82
2023/08/15 04:10:16;;;;;;;5.15;3.03;;;;;;;;;;4967075;28;21937;-81
2023/08/15 04:12:44;;;;;;;4.00;2.80;;;19.00;99.90;;;;;;4992095;28;20162;-83
2023/08/15 04:15:10;;;;;;;6.25;2.92;;;;;;;;;;4974079;28;20035;-83
2023/08/15 04:17:36;;;;;;;5.28;2.90;;;;;;;;;;4978210;28;20121;-82
2023/08/15 04:20:04;;;;;;;4.28;2.97;;;;;;;;;;4972838;28;20030;-82
2023/08/15 04:22:31;;;;;;;5.15;3.05;;;;;;;;;;4979130;28;20627;-81
2023/08/15 04:24:57;;;;;;;5.60;3.30;;;;;;;;;;4994918;28;20119;-82
2023/08/15 04:27:23;;;;;;;4.15;2.80;;;;;;;;;;5000178;28;20046;-81
2023/08/15 04:29:49;;;;;;;3.65;2.88;;;;;;;;;;4976573;28;20034;-81
2023/08/15 04:32:15;;;;;;;4.50;2.95;;;;;;;;;;4988601;28;20153;-81
2023/08/15 04:34:41;;;;;;;4.85;3.33;;;;;;;;;;4975821;28;20030;-80
2023/08/15 04:37:07;;;;;;;4.82;3.30;;;;;;;;;;4963025;28;20035;-81
2023/08/15 04:39:33;;;;;;;5.55;3.40;;;;;;;;;;4994947;28;20515;-79
2023/08/15 04:41:59;;;;;;;5.40;3.30;;;;;;;;;;4965895;28;20050;-81
2023/08/15 04:44:25;;;;;;;4.85;2.97;;;;;;;;;;4964341;28;20081;-81
2023/08/15 04:46:51;;;;;;;5.78;3.05;;;;;;;;;;4972431;28;20376;-82
2023/08/15 04:49:17;;;;;;;6.03;3.85;;;;;;;;;;4978259;28;20133;-81
2023/08/15 04:51:43;;;;;;;5.40;3.47;;;;;;;;;;4953123;28;20427;-82
2023/08/15 04:54:09;;;;;;;11.52;3.85;;;;;;;;;;4964251;28;20057;-81
2023/08/15 04:56:35;;;;;;;5.28;3.50;;;;;;;;;;4974514;28;20028;-81
2023/08/15 04:59:01;;;;;;;4.43;2.75;;;;;;;;;;4968515;28;20030;-82
2023/08/15 05:01:27;;;;;;;5.72;3.42;;;;;;;;;;4965823;28;20032;-81
2023/08/15 05:03:54;;;;;;;5.82;3.40;;;;;;;;;;4977522;28;20101;-81
2023/08/15 05:06:20;;;;;;;5.32;2.67;;;;;;;;;;4971380;28;20034;-81
2023/08/15 05:08:46;;;;;;;7.20;3.17;;;;;;;;;;4986810;28;20050;-81
2023/08/15 05:11:12;;;;;;;5.38;3.28;;;;;;;;;;4981438;28;20538;-82
2023/08/15 05:13:38;;;;;;;5.32;4.10;;;;;;;;;;4981382;28;20175;-82
2023/08/15 05:16:04;;;;;;;5.93;3.00;;;;;;;;;;4983531;28;20086;-81
2023/08/15 05:18:30;;;;;;;5.85;3.70;;;;;;;;;;4963069;28;21546;-81
2023/08/15 05:20:56;;;;;;;6.03;3.10;;;;;;;;;;4980316;28;20031;-81
2023/08/15 05:23:22;;;;;;;6.43;3.22;;;;;;;;;;4983290;28;20111;-81
2023/08/15 05:25:48;;;;;;;6.40;3.85;;;;;;;;;;4966096;28;20978;-82
2023/08/15 05:28:14;;;;;;;6.93;3.90;;;20.60;99.90;;;;;;4982043;28;20043;-80
2023/08/15 05:30:41;;;;;;;5.55;3.97;;;20.10;99.90;;;;;;4946638;28;20035;-81
2023/08/15 05:33:07;;;;;;;6.50;3.35;;;;;;;;;;4984180;28;20155;-79
2023/08/15 05:35:34;;;;;;;25.45;3.97;;;;;;;;;;4976479;28;20423;-81
2023/08/15 05:38:00;;;;;;;4.75;3.03;;;;;;;;;;4966674;28;20525;-79
2023/08/15 05:40:27;;;;;;;4.43;2.78;;;21.10;99.90;;;;;;4968138;28;20041;-81
2023/08/15 05:42:53;;;;;;;6.57;2.95;;;;;;;;;;4963042;28;20145;-79
2023/08/15 05:45:19;;;;;;;4.28;3.15;;;;;;;;;;4956787;28;20608;-83
2023/08/15 05:47:45;;;;;;;7.38;3.58;;;;;;;;;;4979583;28;20043;-82
2023/08/15 05:50:11;;;;;;;7.72;2.92;;;;;;;;;;4959325;28;20081;-83
2023/08/15 05:52:37;;;;;;;7.70;3.60;;;;;;;;;;4977944;28;20027;-83
2023/08/15 05:55:03;;;;;;;9.55;6.15;;;;;;;;;;4965395;28;20058;-81
2023/08/15 05:57:29;;;;;;;6.43;4.18;;;;;;;;;;4966547;28;20514;-83
2023/08/15 05:59:55;;;;;;;6.35;3.40;;;;;;;;;;4965438;28;20061;-83
2023/08/15 06:02:21;;;;;;;7.68;3.70;;;;;;;;;;4948433;28;20105;-82
2023/08/15 06:04:46;;;;;;;11.35;7.18;;;21.90;99.90;;;;;;4982307;28;20026;-83
2023/08/15 06:07:13;;;;;;;7.28;5.68;;;;;;;;;;4968269;28;20026;-82
2023/08/15 06:09:39;;;;;;;10.50;5.13;;;;;;;;;;4973956;28;20035;-81
2023/08/15 06:12:05;;;;;;;7.85;3.90;;;;;;;;;;4967895;28;20045;-81
2023/08/15 06:14:32;;;;;;;13.80;8.15;;;21.60;99.90;;;;;;4964889;28;20027;-81
2023/08/15 06:16:59;;;;;;;14.45;6.32;;;;;;;;;;4968116;28;20034;-82
2023/08/15 06:19:26;;;;;;;6.13;3.92;;;;;;;;;;4959045;28;20721;-82
2023/08/15 06:21:53;;;;;;;9.18;3.30;;;;;;;;;;4964053;28;20041;-82
2023/08/15 06:24:19;;;;;;;8.10;3.22;;;;;;;;;;4969645;28;20499;-82
2023/08/15 06:26:45;;;;;;;5.25;3.45;;;;;;;;;;4951417;28;20170;-81
2023/08/15 06:29:11;;;;;;;7.00;3.08;;;;;;;;;;4964047;28;20031;-82
2023/08/15 06:31:37;;;;;;;6.45;3.45;;;;;;;;;;4961955;28;21311;-81
2023/08/15 06:34:03;;;;;;;13.35;3.70;;;;;;;;;;4978630;28;20046;-82
2023/08/15 06:36:29;;;;;;;7.80;2.90;;;;;;;;;;4970622;28;20393;-82
2023/08/15 06:38:55;;;;;;;5.28;2.65;;;;;;;;;;4986452;28;20031;-81
2023/08/15 06:41:21;;;;;;;4.93;2.55;;;;;;;;;;4970547;28;20019;-82
2023/08/15 06:43:47;;;;;;;5.25;3.30;;;;;;;;;;4975501;28;20117;-82
2023/08/15 06:46:14;;;;;;;5.53;3.38;;;;;;;;;;4958202;28;20492;-82
2023/08/15 06:48:40;;;;;;;8.35;3.60;;;;;;;;;;4979455;28;20047;-82
2023/08/15 06:51:06;;;;;;;6.07;3.15;;;;;;;;;;4986389;28;20041;-82
2023/08/15 06:53:32;;;;;;;5.72;3.17;;;;;;;;;;4968286;28;20381;-81
2023/08/15 06:55:58;;;;;;;6.93;3.45;;;;;;;;;;4972009;28;20134;-81
2023/08/15 06:58:25;;;;;;;6.22;4.25;;;25.20;99.90;;;;;;4973322;28;20034;-83
2023/08/15 07:00:51;;;;;;;5.28;3.30;;;;;;;;;;4977357;28;20054;-82
2023/08/15 07:03:17;;;;;;;4.80;2.75;;;;;;;;;;4983014;28;20039;-82
2023/08/15 07:05:44;;;;;;;4.72;2.80;;;;;;;;;;4982113;28;20039;-84
2023/08/15 07:08:10;;;;;;;8.77;3.33;;;;;;;;;;4973898;28;20029;-82
2023/08/15 07:10:36;;;;;;;6.18;2.95;;;;;;;;;;4964496;28;20042;-83
2023/08/15 07:13:02;;;;;;;4.80;2.92;;;;;;;;;;4966368;28;20492;-83
2023/08/15 07:15:28;;;;;;;5.10;3.35;;;;;;;;;;4966144;28;20035;-83
2023/08/15 07:17:55;;;;;;;6.80;3.92;;;;;;;;;;4964419;28;20120;-82
2023/08/15 07:20:21;;;;;;;4.20;2.92;;;;;;;;;;4973674;28;20523;-83
2023/08/15 07:22:47;;;;;;;4.95;2.80;;;;;;;;;;4986106;28;20046;-82
2023/08/15 07:25:13;;;;;;;5.20;2.22;;;;;;;;;;4969716;28;20094;-83
2023/08/15 07:27:39;;;;;;;3.78;2.28;;;;;;;;;;4970454;28;20027;-83
2023/08/15 07:30:05;;;;;;;2.53;1.58;;;;;;;;;;4964513;28;20058;-83
2023/08/15 07:32:31;;;;;;;7.50;2.13;;;;;;;;;;4943595;28;20035;-82
2023/08/15 07:34:57;;;;;;;13.27;2.20;;;;;;;;;;4974711;28;20524;-84
2023/08/15 07:37:23;;;;;;;3.85;1.52;;;;;;;;;;4963643;28;20056;-81
2023/08/15 07:40:00;;;;;;;3.88;2.22;;;26.40;99.90;;;;;;4989131;28;20772;-82
2023/08/15 07:42:26;;;;;;;3.38;1.70;;;;;;;;;;4975935;28;20058;-82
2023/08/15 07:44:52;;;;;;;4.53;2.10;;;;;;;;;;4962605;28;24056;-80
2023/08/15 07:47:18;;;;;;;8.57;4.03;;;;;;;;;;4975772;28;20034;-83
2023/08/15 07:49:44;;;;;;;6.20;3.40;;;;;;;;;;4970825;28;20031;-83
2023/08/15 07:52:10;;;;;;;10.32;4.95;;;;;;;;;;4993898;28;20573;-83
2023/08/15 07:54:36;;;;;;;7.05;4.22;;;;;;;;;;4980100;28;20133;-83
2023/08/15 07:57:02;;;;;;;4.15;3.35;;;;;;;;;;4984199;28;20037;-83
2023/08/15 07:59:28;;;;;;;5.38;2.47;;;;;;;;;;4983888;28;20047;-82
2023/08/15 08:01:54;;;;;;;5.30;3.38;;;;;;;;;;4991906;28;20022;-83
2023/08/15 08:04:20;;;;;;;7.07;3.83;;;;;;;;;;4990038;28;20551;-83
2023/08/15 08:06:48;;;;;;;5.82;2.40;;;;;;;;;;4992664;28;20023;-82
2023/08/15 08:09:14;;;;;;;4.78;2.45;;;;;;;;;;4973103;28;20030;-82
2023/08/15 08:11:40;;;;;;;4.30;2.22;;;;;;;;;;4959914;28;20037;-82
2023/08/15 08:14:06;;;;;;;3.97;2.42;;;;;;;;;;4987057;28;20034;-82
2023/08/15 08:16:32;;;;;;;5.93;2.22;;;;;;;;;;4993712;28;20035;-82
2023/08/15 08:18:58;;;;;;;4.22;2.22;;;;;;;;;;4989271;28;20035;-83
2023/08/15 08:21:24;;;;;;;3.67;2.17;;;;;;;;;;4991021;28;20042;-82
2023/08/15 08:23:50;;;;;;;6.43;2.10;;;;;;;;;;4975260;28;20023;-82
2023/08/15 08:26:16;;;;;;;6.30;1.67;;;;;;;;;;4970137;28;20023;-83
2023/08/15 08:28:42;;;;;;;2.70;1.83;;;;;;;;;;4990931;28;20054;-82
2023/08/15 08:31:08;;;;;;;3.17;1.90;;;;;;;;;;4975492;28;20041;-82
2023/08/15 08:33:34;;;;;;;5.60;1.65;;;;;;;;;;4994132;28;20035;-82
2023/08/15 08:36:00;;;;;;;4.22;1.95;;;;;;;;;;4974603;28;20603;-82
2023/08/15 08:38:26;;;;;;;3.65;1.90;;;;;;;;;;4992501;28;20712;-81
2023/08/15 08:40:55;;;;;;;2.92;1.63;;;27.40;99.90;;;;;;4966206;28;20427;-82
2023/08/15 08:43:21;;;;;;;2.05;1.48;;;;;;;;;;4967083;28;20035;-81
2023/08/15 08:45:51;;;;;;;4.75;1.77;;;28.30;99.90;;;;;;4967340;28;20027;-82
2023/08/15 08:48:17;;;;;;;5.05;2.00;;;30.30;99.90;;;;;;4947424;28;20038;-82
2023/08/15 08:50:44;;;;;;;3.47;1.65;;;;;;;;;;4948703;28;20038;-82
2023/08/15 08:53:10;;;;;;;3.13;1.40;;;;;;;;;;4985195;28;20037;-82
2023/08/15 08:55:36;;;;;;;2.88;1.60;;;;;;;;;;4971210;28;20031;-82
2023/08/15 08:58:03;;;;;;;4.10;1.52;;;32.20;99.90;;;;;;4968440;28;20654;-83
2023/08/15 09:00:33;;;;;;;3.90;1.98;;;32.40;99.90;;;;;;4966814;28;20039;-83
2023/08/15 09:02:59;;;;;;;3.15;1.42;;;;;;;;;;4989376;28;20034;-83
2023/08/15 09:05:27;;;;;;;2.17;1.40;;;32.90;99.90;;;;;;4980980;28;20114;-83
2023/08/15 09:07:53;;;;;;;2.20;1.50;;;;;;;;;;4975039;28;20022;-84
2023/08/15 09:10:21;;;;;;;2.72;1.20;;;34.30;99.00;;;;;;4983430;28;20149;-82
2023/08/15 09:12:47;;;;;;;2.67;1.27;;;;;;;;;;4967149;28;20035;-82
2023/08/15 09:15:14;;;;;;;5.50;1.48;;;;;;;;;;4948831;28;20029;-82
2023/08/15 09:17:43;;;;;;;4.55;1.63;;;32.30;99.90;;;;;;4966727;28;20035;-81
2023/08/15 09:20:17;;;;;;;4.82;1.52;;;32.40;99.90;;;;;;4967605;28;20031;-82
2023/08/15 09:22:45;;;;;;;3.58;1.40;;;32.90;99.90;;;;;;4950578;28;20031;-83
2023/08/15 09:25:14;;;;;;;2.10;1.23;;;33.30;99.90;;;;;;4970997;28;20027;-82
2023/08/15 09:27:41;;;;;;;3.40;1.38;;;;;;;;;;4990706;28;20395;-82
2023/08/15 09:30:13;;;;;;;2.17;1.60;;;33.50;99.90;;;;;;4949816;28;20037;-82
2023/08/15 09:32:40;;;;;;;2.70;1.23;;;;;;;;;;4972470;28;20360;-81
2023/08/15 09:35:10;;;;;;;3.15;1.65;;;33.40;99.70;;;;;;4958467;28;20035;-83
2023/08/15 09:37:40;;;;;;;2.75;1.55;;;33.20;98.00;;;;;;4962654;28;20027;-82
2023/08/15 09:40:08;;;;;;;5.43;1.70;;;;;;;;;;4968354;28;20046;-83
2023/08/15 09:42:35;;;;;;;2.20;1.35;;;33.00;99.90;;;;;;4984769;28;20038;-82
2023/08/15 09:45:02;;;;;;;2.85;1.42;;;;;;;;;;4969211;28;20019;-82
2023/08/15 09:47:28;;;;;;;4.53;1.50;;;;;;;;;;4965510;28;20645;-82
2023/08/15 09:49:55;;;;;;;2.85;1.67;;;32.90;99.40;;;;;;4977861;28;20109;-84
2023/08/15 09:52:22;;;;;;;3.55;1.50;;;32.70;98.50;;;;;;4972035;28;20050;-83
2023/08/15 09:54:48;;;;;;;3.15;1.70;;;;;;;;;;4954141;28;20049;-83
2023/08/15 09:57:14;;;;;;;2.78;1.23;;;;;;;;;;4958929;28;20043;-82
2023/08/15 09:59:40;;;;;;;6.32;1.75;;;;;;;;;;4962223;28;20026;-82
2023/08/15 10:02:13;;;;;;;3.63;1.80;;;32.00;99.90;;;;;;4972160;28;20026;-85
2023/08/15 10:04:40;;;;;;;2.17;1.50;;;30.80;99.90;;;;;;4962404;28;20027;-83
2023/08/15 10:07:06;;;;;;;4.20;1.95;;;;;;;;;;4966573;28;20384;-85
2023/08/15 10:09:32;;;;;;;3.33;1.85;;;;;;;;;;4977299;28;20035;-85
2023/08/15 10:12:00;;;;;;;3.60;1.95;;;;;;;;;;4971138;28;20136;-82
2023/08/15 10:14:28;;;;;;;5.50;1.88;;;31.40;99.90;;;;;;4984763;28;20035;-83
2023/08/15 10:16:54;;;;;;;3.88;1.40;;;30.90;99.90;;;;;;4971063;28;20023;-84
2023/08/15 10:19:20;;;;;;;5.00;1.83;;;;;;;;;;4971362;28;20054;-83
2023/08/15 10:21:50;;;;;;;4.38;1.35;;;31.20;99.90;;;;;;4975150;28;20092;-83
2023/08/15 10:24:17;;;;;;;1.75;1.23;;;;;;;;;;4988933;28;20030;-82
2023/08/15 10:26:43;;;;;;;2.58;1.38;;;31.60;99.90;;;;;;4992581;28;20031;-84
2023/08/15 10:29:09;;;;;;;5.35;1.92;;;;;;;;;;4965385;28;20506;-83
2023/08/15 10:31:37;;;;;;;3.42;1.45;;;31.10;99.90;;;;;;4984466;28;20027;-83
2023/08/15 10:34:04;;;;;;;2.53;1.33;;;31.60;99.90;;;;;;4961658;28;20025;-83
2023/08/15 10:36:30;;;;;;;2.58;1.63;;;;;;;;;;4967080;28;20105;-85
2023/08/15 10:38:56;;;;;;;5.82;1.70;;;;;;;;;;4969572;28;20072;-83
2023/08/15 10:41:22;;;;;;;5.35;2.20;;;;;;;;;;4970152;28;20062;-83
2023/08/15 10:43:52;;;;;;;3.28;1.92;;;31.20;99.90;;;;;;4969691;28;20058;-84
2023/08/15 10:46:30;;;;;;;2.75;1.50;;;30.90;99.90;;;;;;4957196;28;20503;-84
2023/08/15 10:49:19;;;;;;;2.80;1.77;;;31.40;99.90;;;;;;4969981;28;20135;-83
2023/08/15 10:51:45;;;;;;;2.53;1.83;;;;;;;;;;4965634;28;20035;-85
2023/08/15 10:54:13;;;;;;;3.40;1.83;;;32.00;99.90;;;;;;4984845;28;20038;-83
2023/08/15 10:56:41;;;;;;;3.22;1.40;;;32.10;99.90;;;;;;4980108;28;20042;-82
2023/08/15 10:59:09;;;;;;;3.60;1.70;;;32.20;99.90;;;;;;4976092;28;20031;-82
2023/08/15 11:01:39;;;;;;;4.38;1.77;;;31.90;99.90;;;;;;4962658;28;20086;-82
2023/08/15 11:04:08;;;;;;;3.45;1.88;;;31.60;99.90;;;;;;4985325;28;20027;-82
2023/08/15 11:06:41;;;;;;;2.97;1.60;;;31.80;99.90;;;;;;4944448;28;20037;-82
2023/08/15 11:09:07;;;;;;;3.35;1.80;;;;;;;;;;4968869;28;20130;-82
2023/08/15 11:11:36;;;;;;;7.30;1.67;;;;;;;;;;4946170;28;20039;-82
2023/08/15 11:14:03;;;;;;;2.53;1.45;;;;;;;;;;4966170;28;20431;-81
2023/08/15 11:16:28;;;;;;;2.45;1.50;;;;;;;;;;4946966;28;20039;-82
2023/08/15 11:18:59;;;;;;;4.72;2.28;;;31.70;99.90;;;;;;4972403;28;20030;-82
2023/08/15 11:21:28;;;;;;;4.30;2.17;;;31.50;99.90;;;;;;4981244;28;20030;-85
2023/08/15 11:23:57;;;;;;;2.60;1.50;;;31.70;99.90;;;;;;4965224;28;20086;-82
2023/08/15 11:26:25;;;;;;;1.90;1.38;;;;;;;;;;4967535;28;20038;-83
2023/08/15 11:28:51;;;;;;;6.47;1.40;;;;;;;;;;4963090;28;20061;-83
2023/08/15 11:31:17;;;;;;;2.78;1.60;;;;;;;;;;4980349;28;20066;-83
2023/08/15 11:33:44;;;;;;;3.28;1.40;;;31.60;98.10;;;;;;4966055;28;20038;-83
2023/08/15 11:36:11;;;;;;;2.55;1.60;;;;;;;;;;4943850;28;20089;-82
2023/08/15 11:38:37;;;;;;;3.35;1.63;;;30.90;99.90;;;;;;4959936;28;20491;-82
2023/08/15 11:41:04;;;;;;;3.28;1.80;;;30.50;99.90;;;;;;4937870;28;20038;-82
2023/08/15 11:43:30;;;;;;;3.92;1.75;;;;;;;;;;4949156;28;20029;-82
2023/08/15 11:45:56;;;;;;;2.30;2.00;;;;;;;;;;4981172;28;20431;-84
2023/08/15 11:48:22;;;;;;;4.32;1.63;;;;;;;;;;4980225;28;20023;-83
2023/08/15 11:50:50;;;;;;;3.50;1.88;;;;;;;;;;4962704;28;20031;-82
2023/08/15 11:53:18;;;;;;;2.35;1.60;;;31.80;99.90;;;;;;4952704;28;20089;-83
2023/08/15 11:55:45;;;;;;;4.30;2.13;;;31.70;99.10;;;;;;4950437;28;20038;-83
2023/08/15 11:58:21;;;;;;;7.95;3.72;;;31.20;99.90;;;;;;4939550;28;20050;-82
2023/08/15 12:00:47;;;;;;;7.88;2.72;;;;;;;;;;4950606;28;20045;-82
2023/08/15 12:03:13;;;;;;;3.55;1.48;;;;;;;;;;4955116;28;20031;-82
2023/08/15 12:05:39;;;;;;;3.15;1.20;;;;;;;;;;4973104;28;20100;-83
2023/08/15 12:08:05;;;;;;;2.42;1.50;;;;;;;;;;4968393;28;20034;-80
2023/08/15 12:10:31;;;;;;;6.07;1.70;;;;;;;;;;4976360;28;20116;-82
2023/08/15 12:13:02;;;;;;;3.47;1.58;;;30.30;97.00;;;;;;4984412;28;20030;-83
2023/08/15 12:15:28;;;;;;;7.00;2.10;;;;;;;;;;4972414;28;20031;-82
2023/08/15 12:17:55;;;;;;;4.82;1.55;;;;;;;;;;4966821;28;20039;-82
2023/08/15 12:20:23;;;;;;;2.72;1.20;;;;;;;;;;4984894;28;20109;-83
2023/08/15 12:22:49;;;;;;;2.80;1.40;;;;;;;;;;4984505;28;20033;-82
2023/08/15 12:25:15;;;;;;;5.85;1.15;;;;;;;;;;4961184;28;20034;-81
2023/08/15 12:27:40;;;;;;;4.28;1.35;;;;;;;;;;4979474;28;20105;-82
2023/08/15 12:30:07;;;;;;;5.05;1.60;;;31.10;95.60;;;;;;4964343;28;20043;-81
2023/08/15 12:32:34;;;;;;;3.20;1.30;;;;;;;;;;4979474;28;20507;-81
2023/08/15 12:35:00;;;;;;;4.68;1.50;;;;;;;;;;4949033;28;20125;-83
2023/08/15 12:37:26;;;;;;;4.07;0.95;;;;;;;;;;4983421;28;20515;-83
2023/08/15 12:39:52;;;;;;;4.22;1.17;;;;;;;;;;4964782;28;20031;-82
2023/08/15 12:42:18;;;;;;;4.88;1.48;;;;;;;;;;4942062;28;20704;-80
2023/08/15 12:44:44;;;;;;;3.20;1.55;;;;;;;;;;4948917;28;20035;-82
2023/08/15 12:47:10;;;;;;;2.83;1.80;;;31.40;94.70;;;;;;4963884;28;20722;-81
2023/08/15 12:49:37;;;;;;;2.88;1.83;;;31.70;93.50;;;;;;4982828;28;20130;-80
2023/08/15 12:52:04;;;;;;;6.40;2.42;;;31.70;94.00;;;;;;4952464;28;20384;-81
2023/08/15 12:54:31;;;;;;;4.65;1.13;;;;;;;;;;4975070;28;20031;-81
2023/08/15 12:56:57;;;;;;;5.82;1.92;;;;;;;;;;4967681;28;20496;-81
2023/08/15 12:59:23;;;;;;;5.35;1.85;;;;;;;;;;4968745;28;20034;-81
2023/08/15 13:01:49;;;;;;;3.85;1.50;;;;;;;;;;4966307;28;20037;-81
2023/08/15 13:04:15;;;;;;;3.05;1.50;;;;;;;;;;4965084;28;20054;-82
2023/08/15 13:06:41;;;;;;;2.22;1.58;;;;;;;;;;4951105;28;20228;-82
2023/08/15 13:09:08;;;;;;;2.50;1.30;;;;;;;;;;4964137;28;20519;-82
2023/08/15 13:11:37;;;;;;;3.10;1.52;;;31.20;95.50;;;;;;4970980;28;20226;-83
2023/08/15 13:14:03;;;;;;;7.95;1.40;;;30.80;94.20;;;;;;4971549;28;20034;-81
2023/08/15 13:16:29;;;;;;;2.70;1.33;;;;;;;;;;4968706;28;20384;-82
2023/08/15 13:18:56;;;;;;;2.92;1.15;;;;;;;;;;4978824;28;20030;-83
2023/08/15 13:21:21;;;;;;;2.13;1.20;;;;;;;;;;4963745;28;20038;-82
2023/08/15 13:23:47;;;;;;;2.25;1.45;;;;;;;;;;4970018;28;20038;-82
2023/08/15 13:26:14;;;;;;;4.10;1.60;;;;;;;;;;4965834;28;20069;-82
2023/08/15 13:28:40;;;;;;;8.07;3.10;;;;;;;;;;4974174;28;20038;-84
2023/08/15 13:31:06;;;;;;;8.85;2.45;;;;;;;;;;4965604;28;20564;-83
2023/08/15 13:33:32;;;;;;;7.50;1.92;;;;;;;;;;4963324;28;20031;-84
2023/08/15 13:35:58;;;;;;;4.50;2.08;;;;;;;;;;4964250;28;20842;-83
2023/08/15 13:38:24;;;;;;;2.40;1.55;;;;;;;;;;4966029;28;20498;-84
2023/08/15 13:40:50;;;;;;;4.25;2.40;;;;;;;;;;4975028;28;20027;-83
2023/08/15 13:43:16;;;;;;;3.55;1.88;;;;;;;;;;4959733;28;20030;-83
2023/08/15 13:45:41;;;;;;;4.10;2.67;;;30.80;99.90;;;;;;4980517;28;20023;-79
2023/08/15 13:48:07;;;;;;;6.65;2.80;;;;;;;;;;4981062;28;20081;-82
2023/08/15 13:50:33;;;;;;;5.88;2.50;;;;;;;;;;4973554;28;20022;-81
2023/08/15 13:53:01;;;;;;;3.75;2.13;;;;;;;;;;4975388;28;20035;-83
2023/08/15 13:55:26;;;;;;;6.35;2.45;;;;;;;;;;4968283;28;20031;-81
2023/08/15 13:57:52;;;;;;;4.15;2.03;;;;;;;;;;4981713;28;20097;-83
2023/08/15 14:00:18;;;;;;;5.10;2.28;;;;;;;;;;4962770;28;20038;-82
2023/08/15 14:02:44;;;;;;;4.75;1.70;;;;;;;;;;4970717;28;20034;-81
2023/08/15 14:05:10;;;;;;;7.65;1.80;;;;;;;;;;4961485;28;20045;-83
2023/08/15 14:07:36;;;;;;;3.75;2.05;;;;;;;;;;4959421;28;20034;-82
2023/08/15 14:10:03;;;;;;;4.35;1.65;;;;;;;;;;4972260;28;20042;-82